createdAt,value
2023-01-15T00:02:07.322Z,7.65
2023-01-15T00:17:11.558Z,7.74
2023-01-15T00:32:16.287Z,7.75
2023-01-15T00:47:20.363Z,7.76
2023-01-15T01:02:26.468Z,7.79
2023-01-15T01:17:30.606Z,7.90
2023-01-15T01:32:35.831Z,8.05
2023-01-15T01:47:40.240Z,8.12
2023-01-15T02:02:46.147Z,8.17
2023-01-15T02:18:01.915Z,8.23
2023-01-15T02:33:12.409Z,8.25
2023-01-15T02:48:17.130Z,8.17
2023-01-15T03:03:23.773Z,8.24
2023-01-15T03:18:28.452Z,8.35
2023-01-15T03:33:34.864Z,8.40
2023-01-15T03:48:59.848Z,8.61
2023-01-15T04:04:06.626Z,8.63
2023-01-15T04:19:11.839Z,8.57
2023-01-15T04:34:23.043Z,8.69
2023-01-15T04:49:26.868Z,8.73
2023-01-15T05:04:31.978Z,8.72
2023-01-15T05:19:36.337Z,8.75
2023-01-15T05:34:41.062Z,8.71
2023-01-15T05:49:44.955Z,8.72
2023-01-15T06:04:50.167Z,8.75
2023-01-15T06:19:54.152Z,8.73
2023-01-15T06:34:59.273Z,8.73
2023-01-15T06:50:03.073Z,8.71
2023-01-15T07:05:08.700Z,8.59
2023-01-15T07:20:13.838Z,8.60
2023-01-15T07:35:18.569Z,8.62
2023-01-15T07:50:23.002Z,8.69
2023-01-15T08:05:27.873Z,8.89
2023-01-15T08:20:32.171Z,9.02
2023-01-15T08:35:37.020Z,9.17
2023-01-15T08:50:41.054Z,9.38
2023-01-15T09:05:45.545Z,9.57
2023-01-15T09:20:49.422Z,9.73
2023-01-15T09:35:54.893Z,9.70
2023-01-15T09:51:04.949Z,8.12
2023-01-15T10:06:11.178Z,7.20
2023-01-15T10:21:32.790Z,6.62
2023-01-15T10:36:38.264Z,6.30
2023-01-15T10:51:55.227Z,6.10
2023-01-15T11:07:01.561Z,5.71
2023-01-15T11:22:13.331Z,5.44
2023-01-15T11:37:17.671Z,5.44
2023-01-15T11:52:22.315Z,5.39
2023-01-15T12:07:27.359Z,5.38
2023-01-15T12:22:47.913Z,5.35
2023-01-15T12:37:54.624Z,5.29
2023-01-15T12:53:01.601Z,5.14
2023-01-15T13:08:07.804Z,5.03
2023-01-15T13:23:30.489Z,5.10
2023-01-15T13:38:39.751Z,5.15
2023-01-15T13:53:45.570Z,5.23
2023-01-15T14:08:52.705Z,5.34
2023-01-15T14:23:59.861Z,5.30
2023-01-15T14:39:04.232Z,5.22
2023-01-15T14:54:08.728Z,5.15
2023-01-15T15:09:14.167Z,5.01
2023-01-15T15:24:28.464Z,4.91
2023-01-15T15:39:43.553Z,4.83
2023-01-15T15:54:57.398Z,4.76
2023-01-15T16:10:10.995Z,4.68
2023-01-15T16:25:21.859Z,4.57
2023-01-15T16:40:28.799Z,4.56
2023-01-15T16:55:42.908Z,4.47
2023-01-15T17:10:57.924Z,4.40
2023-01-15T17:26:02.344Z,4.38
2023-01-15T17:41:08.811Z,4.25
2023-01-15T17:56:31.147Z,4.19
2023-01-15T18:11:35.563Z,4.25
2023-01-15T18:26:40.020Z,4.24
2023-01-15T18:41:45.731Z,4.13
2023-01-15T18:56:49.758Z,4.01
2023-01-15T19:11:54.555Z,3.88
2023-01-15T19:26:58.585Z,3.74
2023-01-15T19:42:21.721Z,3.64
2023-01-15T19:57:25.725Z,3.54
2023-01-15T20:12:49.235Z,3.46
2023-01-15T20:27:53.267Z,3.33
2023-01-15T20:43:16.294Z,3.23
2023-01-15T20:58:20.548Z,3.15
2023-01-15T21:13:25.019Z,3.03
2023-01-15T21:28:29.559Z,3.03
2023-01-15T21:43:51.931Z,2.93
2023-01-15T21:58:56.067Z,2.96
2023-01-15T22:14:00.915Z,2.90
2023-01-15T22:29:05.018Z,2.84
2023-01-15T22:44:10.294Z,2.80
2023-01-15T22:59:14.334Z,2.71
2023-01-15T23:14:19.653Z,2.77
2023-01-15T23:29:23.579Z,2.80
2023-01-15T23:44:47.169Z,2.80
2023-01-15T23:59:51.103Z,2.81
